sensor_id;sensor_type;location;lat;lon;timestamp;pressure;altitude;pressure_sealevel;temperature
9798;BMP180;4938;57.492;12.652;2022-08-19T00:02:37;81715.44;;;-136.68
9798;BMP180;4938;57.492;12.652;2022-08-19T00:05:24;81715.44;;;-136.68
9798;BMP180;4938;57.492;12.652;2022-08-19T00:08:11;81428.13;;;-136.68
9798;BMP180;4938;57.492;12.652;2022-08-19T00:10:58;81705.34;;;-136.68
9798;BMP180;4938;57.492;12.652;2022-08-19T00:13:45;81721.50;;;-136.68
9798;BMP180;4938;57.492;12.652;2022-08-19T00:16:35;81717.47;;;-136.68
9798;BMP180;4938;57.492;12.652;2022-08-19T00:19:23;81656.75;;;-136.68
9798;BMP180;4938;57.492;12.652;2022-08-19T00:22:10;81737.72;;;-136.68
9798;BMP180;4938;57.492;12.652;2022-08-19T00:24:57;81745.81;;;-136.68
9798;BMP180;4938;57.492;12.652;2022-08-19T00:27:44;81739.72;;;-136.68
9798;BMP180;4938;57.492;12.652;2022-08-19T00:30:31;81727.59;;;-136.68
9798;BMP180;4938;57.492;12.652;2022-08-19T00:33:19;81751.88;;;-136.68
9798;BMP180;4938;57.492;12.652;2022-08-19T00:36:08;81729.63;;;-136.68
9798;BMP180;4938;57.492;12.652;2022-08-19T00:38:56;81747.81;;;-136.68
9798;BMP180;4938;57.492;12.652;2022-08-19T00:41:44;81735.69;;;-136.68
9798;BMP180;4938;57.492;12.652;2022-08-19T00:44:33;81743.78;;;-136.68
9798;BMP180;4938;57.492;12.652;2022-08-19T00:47:19;81749.84;;;-136.68
9798;BMP180;4938;57.492;12.652;2022-08-19T00:50:10;81766.03;;;-136.68
9798;BMP180;4938;57.492;12.652;2022-08-19T00:52:58;81747.81;;;-136.68
9798;BMP180;4938;57.492;12.652;2022-08-19T00:55:46;81759.97;;;-136.68
9798;BMP180;4938;57.492;12.652;2022-08-19T00:58:34;81731.63;;;-136.68
9798;BMP180;4938;57.492;12.652;2022-08-19T01:01:21;81743.78;;;-136.68
9798;BMP180;4938;57.492;12.652;2022-08-19T01:04:09;81442.28;;;-136.68
9798;BMP180;4938;57.492;12.652;2022-08-19T01:06:57;81741.75;;;-136.68
9798;BMP180;4938;57.492;12.652;2022-08-19T01:09:45;81480.72;;;-136.68
9798;BMP180;4938;57.492;12.652;2022-08-19T01:12:33;81205.56;;;-136.68
9798;BMP180;4938;57.492;12.652;2022-08-19T01:15:23;81727.59;;;-136.68
9798;BMP180;4938;57.492;12.652;2022-08-19T01:18:15;81660.81;;;-136.68
9798;BMP180;4938;57.492;12.652;2022-08-19T01:21:09;81759.97;;;-136.68
9798;BMP180;4938;57.492;12.652;2022-08-19T01:23:58;81745.81;;;-136.68
9798;BMP180;4938;57.492;12.652;2022-08-19T01:26:46;81753.91;;;-136.68
9798;BMP180;4938;57.492;12.652;2022-08-19T01:29:33;81764.00;;;-136.68
9798;BMP180;4938;57.492;12.652;2022-08-19T01:32:20;81745.81;;;-136.68
9798;BMP180;4938;57.492;12.652;2022-08-19T01:35:09;81784.25;;;-136.68
9798;BMP180;4938;57.492;12.652;2022-08-19T01:37:59;81602.13;;;-136.68
9798;BMP180;4938;57.492;12.652;2022-08-19T01:40:48;81762.00;;;-136.68
9798;BMP180;4938;57.492;12.652;2022-08-19T01:43:35;81772.09;;;-136.68
9798;BMP180;4938;57.492;12.652;2022-08-19T01:46:22;81786.28;;;-136.68
9798;BMP180;4938;57.492;12.652;2022-08-19T01:49:09;81776.16;;;-136.68
9798;BMP180;4938;57.492;12.652;2022-08-19T01:51:57;83577.72;;;-136.68
9798;BMP180;4938;57.492;12.652;2022-08-19T01:54:45;81804.47;;;-136.68
9798;BMP180;4938;57.492;12.652;2022-08-19T01:57:34;81762.00;;;-136.68
9798;BMP180;4938;57.492;12.652;2022-08-19T02:00:23;81790.31;;;-136.68
9798;BMP180;4938;57.492;12.652;2022-08-19T02:03:11;81610.22;;;-136.68
9798;BMP180;4938;57.492;12.652;2022-08-19T02:05:59;81776.16;;;-136.68
9798;BMP180;4938;57.492;12.652;2022-08-19T02:08:48;81804.47;;;-136.68
9798;BMP180;4938;57.492;12.652;2022-08-19T02:11:36;81768.06;;;-136.68
9798;BMP180;4938;57.492;12.652;2022-08-19T02:14:25;81766.03;;;-136.68
9798;BMP180;4938;57.492;12.652;2022-08-19T02:17:11;81774.13;;;-136.68
9798;BMP180;4938;57.492;12.652;2022-08-19T02:19:58;81800.44;;;-136.68
9798;BMP180;4938;57.492;12.652;2022-08-19T02:22:45;83768.06;;;-136.68
9798;BMP180;4938;57.492;12.652;2022-08-19T02:25:33;81800.44;;;-136.68
9798;BMP180;4938;57.492;12.652;2022-08-19T02:28:20;81784.25;;;-136.68
9798;BMP180;4938;57.492;12.652;2022-08-19T02:31:11;81713.41;;;-136.68
9798;BMP180;4938;57.492;12.652;2022-08-19T02:34:00;81782.22;;;-136.68
9798;BMP180;4938;57.492;12.652;2022-08-19T02:36:47;81768.06;;;-136.68
9798;BMP180;4938;57.492;12.652;2022-08-19T02:39:34;81788.28;;;-136.68
9798;BMP180;4938;57.492;12.652;2022-08-19T02:42:20;81794.38;;;-136.68
9798;BMP180;4938;57.492;12.652;2022-08-19T02:45:08;81780.19;;;-136.68
9798;BMP180;4938;57.492;12.652;2022-08-19T02:47:56;81776.16;;;-136.68
9798;BMP180;4938;57.492;12.652;2022-08-19T02:50:43;81766.03;;;-136.68
9798;BMP180;4938;57.492;12.652;2022-08-19T02:53:31;81794.38;;;-136.68
9798;BMP180;4938;57.492;12.652;2022-08-19T02:56:18;81778.19;;;-136.68
9798;BMP180;4938;57.492;12.652;2022-08-19T02:59:06;81776.16;;;-136.68
9798;BMP180;4938;57.492;12.652;2022-08-19T03:01:53;81794.38;;;-136.68
9798;BMP180;4938;57.492;12.652;2022-08-19T03:04:42;83571.63;;;-136.68
9798;BMP180;4938;57.492;12.652;2022-08-19T03:07:29;81806.50;;;-136.68
9798;BMP180;4938;57.492;12.652;2022-08-19T03:10:16;81826.75;;;-136.68
9798;BMP180;4938;57.492;12.652;2022-08-19T03:13:03;81784.25;;;-136.68
9798;BMP180;4938;57.492;12.652;2022-08-19T03:15:50;81796.38;;;-136.68
9798;BMP180;4938;57.492;12.652;2022-08-19T03:18:37;81529.28;;;-136.68
9798;BMP180;4938;57.492;12.652;2022-08-19T03:21:27;81800.44;;;-136.68
9798;BMP180;4938;57.492;12.652;2022-08-19T03:24:16;81788.28;;;-136.68
9798;BMP180;4938;57.492;12.652;2022-08-19T03:27:04;81814.59;;;-136.68
9798;BMP180;4938;57.492;12.652;2022-08-19T03:29:51;81818.66;;;-136.68
9798;BMP180;4938;57.492;12.652;2022-08-19T03:32:38;81776.16;;;-136.68
9798;BMP180;4938;57.492;12.652;2022-08-19T03:35:25;81804.47;;;-136.68
9798;BMP180;4938;57.492;12.652;2022-08-19T03:38:14;81820.69;;;-136.68
9798;BMP180;4938;57.492;12.652;2022-08-19T03:41:05;81824.72;;;-136.68
9798;BMP180;4938;57.492;12.652;2022-08-19T03:43:53;81802.47;;;-136.68
9798;BMP180;4938;57.492;12.652;2022-08-19T03:46:40;81820.69;;;-136.68
9798;BMP180;4938;57.492;12.652;2022-08-19T03:49:29;81812.56;;;-136.68
9798;BMP180;4938;57.492;12.652;2022-08-19T03:52:18;81820.69;;;-136.68
9798;BMP180;4938;57.492;12.652;2022-08-19T03:55:07;81812.56;;;-136.68
9798;BMP180;4938;57.492;12.652;2022-08-19T03:57:54;81804.47;;;-136.68
9798;BMP180;4938;57.492;12.652;2022-08-19T04:00:42;81788.28;;;-136.68
9798;BMP180;4938;57.492;12.652;2022-08-19T04:03:29;81796.38;;;-136.68
9798;BMP180;4938;57.492;12.652;2022-08-19T04:06:18;81818.66;;;-136.68
9798;BMP180;4938;57.492;12.652;2022-08-19T04:09:08;81784.25;;;-136.68
9798;BMP180;4938;57.492;12.652;2022-08-19T04:11:58;81784.25;;;-136.68
9798;BMP180;4938;57.492;12.652;2022-08-19T04:14:45;81768.06;;;-136.68
9798;BMP180;4938;57.492;12.652;2022-08-19T04:17:32;81755.91;;;-136.68
9798;BMP180;4938;57.492;12.652;2022-08-19T04:20:19;81721.50;;;-136.68
9798;BMP180;4938;57.492;12.652;2022-08-19T04:23:06;81735.69;;;-136.68
9798;BMP180;4938;57.492;12.652;2022-08-19T04:25:54;81624.38;;;-136.68
9798;BMP180;4938;57.492;12.652;2022-08-19T04:28:43;81509.06;;;-136.68
9798;BMP180;4938;57.492;12.652;2022-08-19T04:31:32;81444.31;;;-136.68
9798;BMP180;4938;57.492;12.652;2022-08-19T04:34:23;81377.53;;;-136.68
9798;BMP180;4938;57.492;12.652;2022-08-19T04:37:10;81363.38;;;-136.68
9798;BMP180;4938;57.492;12.652;2022-08-19T04:39:58;81339.09;;;-136.68
9798;BMP180;4938;57.492;12.652;2022-08-19T04:43:02;81383.59;;;-136.68
9798;BMP180;4938;57.492;12.652;2022-08-19T04:45:50;81286.50;;;-136.68
9798;BMP180;4938;57.492;12.652;2022-08-19T04:48:38;81233.88;;;-136.68
9798;BMP180;4938;57.492;12.652;2022-08-19T04:51:25;81229.84;;;-136.68
9798;BMP180;4938;57.492;12.652;2022-08-19T04:54:13;81260.19;;;-136.68
9798;BMP180;4938;57.492;12.652;2022-08-19T04:57:00;81227.81;;;-136.68
9798;BMP180;4938;57.492;12.652;2022-08-19T04:59:47;81207.59;;;-136.68
9798;BMP180;4938;57.492;12.652;2022-08-19T05:02:36;81217.69;;;-136.68
9798;BMP180;4938;57.492;12.652;2022-08-19T05:05:23;81209.59;;;-136.68
9798;BMP180;4938;57.492;12.652;2022-08-19T05:08:11;81205.56;;;-136.68
9798;BMP180;4938;57.492;12.652;2022-08-19T05:10:58;81173.19;;;-136.68
9798;BMP180;4938;57.492;12.652;2022-08-19T05:13:45;81140.81;;;-136.68
9798;BMP180;4938;57.492;12.652;2022-08-19T05:16:34;81179.25;;;-136.68
9798;BMP180;4938;57.492;12.652;2022-08-19T05:19:22;81167.13;;;-136.68
9798;BMP180;4938;57.492;12.652;2022-08-19T05:22:26;81128.69;;;-136.68
9798;BMP180;4938;57.492;12.652;2022-08-19T05:25:21;81082.16;;;-136.68
9798;BMP180;4938;57.492;12.652;2022-08-19T05:28:08;81067.97;;;-136.68
9798;BMP180;4938;57.492;12.652;2022-08-19T05:30:55;81061.91;;;-136.68
9798;BMP180;4938;57.492;12.652;2022-08-19T05:33:42;81080.13;;;-136.68
9798;BMP180;4938;57.492;12.652;2022-08-19T05:36:36;81047.75;;;-136.68
9798;BMP180;4938;57.492;12.652;2022-08-19T05:39:27;81007.28;;;-136.68
9798;BMP180;4938;57.492;12.652;2022-08-19T05:42:15;81009.31;;;-136.68
9798;BMP180;4938;57.492;12.652;2022-08-19T05:45:02;81007.28;;;-136.68
9798;BMP180;4938;57.492;12.652;2022-08-19T05:47:50;80970.88;;;-136.68
9798;BMP180;4938;57.492;12.652;2022-08-19T05:50:37;80948.63;;;-136.68
9798;BMP180;4938;57.492;12.652;2022-08-19T05:53:25;80926.38;;;-136.68
9798;BMP180;4938;57.492;12.652;2022-08-19T05:56:14;80885.91;;;-136.68
9798;BMP180;4938;57.492;12.652;2022-08-19T05:59:02;80881.88;;;-136.68
9798;BMP180;4938;57.492;12.652;2022-08-19T06:01:55;80891.97;;;-136.68
9798;BMP180;4938;57.492;12.652;2022-08-19T06:04:42;80847.47;;;-136.68
9798;BMP180;4938;57.492;12.652;2022-08-19T06:07:29;80871.75;;;-136.68
9798;BMP180;4938;57.492;12.652;2022-08-19T06:10:18;80837.38;;;-136.68
9798;BMP180;4938;57.492;12.652;2022-08-19T06:13:06;80823.19;;;-136.68
9798;BMP180;4938;57.492;12.652;2022-08-19T06:15:53;81677.00;;;-136.68
9798;BMP180;4938;57.492;12.652;2022-08-19T06:18:39;80760.50;;;-136.68
9798;BMP180;4938;57.492;12.652;2022-08-19T06:21:28;80774.66;;;-136.68
9798;BMP180;4938;57.492;12.652;2022-08-19T06:24:17;80752.41;;;-136.68
9798;BMP180;4938;57.492;12.652;2022-08-19T06:27:06;80724.09;;;-136.68
9798;BMP180;4938;57.492;12.652;2022-08-19T06:29:53;80720.03;;;-136.68
9798;BMP180;4938;57.492;12.652;2022-08-19T06:32:40;80724.09;;;-136.68
9798;BMP180;4938;57.492;12.652;2022-08-19T06:35:27;80744.31;;;-136.68
9798;BMP180;4938;57.492;12.652;2022-08-19T06:38:15;80728.13;;;-136.68
9798;BMP180;4938;57.492;12.652;2022-08-19T06:41:03;80695.75;;;-136.68
9798;BMP180;4938;57.492;12.652;2022-08-19T06:43:52;80629.00;;;-136.68
9798;BMP180;4938;57.492;12.652;2022-08-19T06:46:40;80639.13;;;-136.68
9798;BMP180;4938;57.492;12.652;2022-08-19T06:49:27;80627.00;;;-136.68
9798;BMP180;4938;57.492;12.652;2022-08-19T06:52:16;80643.16;;;-136.68
9798;BMP180;4938;57.492;12.652;2022-08-19T06:55:04;80637.09;;;-136.68
9798;BMP180;4938;57.492;12.652;2022-08-19T06:57:51;80610.81;;;-136.68
9798;BMP180;4938;57.492;12.652;2022-08-19T07:00:40;80655.31;;;-136.68
9798;BMP180;4938;57.492;12.652;2022-08-19T07:03:29;80716.00;;;-136.68
9798;BMP180;4938;57.492;12.652;2022-08-19T07:06:18;80762.50;;;-136.68
9798;BMP180;4938;57.492;12.652;2022-08-19T07:09:07;80485.41;;;-136.68
9798;BMP180;4938;57.492;12.652;2022-08-19T07:11:55;80792.84;;;-136.68
9798;BMP180;4938;57.492;12.652;2022-08-19T07:14:42;80768.59;;;-136.68
9798;BMP180;4938;57.492;12.652;2022-08-19T07:17:32;80912.22;;;-136.68
9798;BMP180;4938;57.492;12.652;2022-08-19T07:20:20;80918.28;;;-136.68
9798;BMP180;4938;57.492;12.652;2022-08-19T07:23:07;80902.09;;;-136.68
9798;BMP180;4938;57.492;12.652;2022-08-19T07:25:54;80898.06;;;-136.68
9798;BMP180;4938;57.492;12.652;2022-08-19T07:28:43;80390.34;;;-136.68
9798;BMP180;4938;57.492;12.652;2022-08-19T07:31:30;80922.31;;;-136.68
9798;BMP180;4938;57.492;12.652;2022-08-19T07:34:19;80780.72;;;-136.68
9798;BMP180;4938;57.492;12.652;2022-08-19T07:37:06;80991.09;;;-136.68
9798;BMP180;4938;57.492;12.652;2022-08-19T07:39:53;81053.81;;;-136.68
9798;BMP180;4938;57.492;12.652;2022-08-19T07:42:41;81100.34;;;-136.68
9798;BMP180;4938;57.492;12.652;2022-08-19T07:45:28;81100.34;;;-136.68
9798;BMP180;4938;57.492;12.652;2022-08-19T07:48:17;81059.88;;;-136.68
9798;BMP180;4938;57.492;12.652;2022-08-19T07:51:06;81074.06;;;-136.68
9798;BMP180;4938;57.492;12.652;2022-08-19T07:53:54;81092.25;;;-136.68
9798;BMP180;4938;57.492;12.652;2022-08-19T07:56:41;80956.72;;;-136.68
9798;BMP180;4938;57.492;12.652;2022-08-19T07:59:28;81035.63;;;-136.68
9798;BMP180;4938;57.492;12.652;2022-08-19T08:02:15;81023.47;;;-136.68
9798;BMP180;4938;57.492;12.652;2022-08-19T08:05:02;80707.91;;;-136.68
9798;BMP180;4938;57.492;12.652;2022-08-19T08:08:05;80958.75;;;-136.68
9798;BMP180;4938;57.492;12.652;2022-08-19T08:11:23;80950.66;;;-136.68
9798;BMP180;4938;57.492;12.652;2022-08-19T08:14:11;80952.66;;;-136.68
9798;BMP180;4938;57.492;12.652;2022-08-19T08:16:59;80944.56;;;-136.68
9798;BMP180;4938;57.492;12.652;2022-08-19T08:19:46;80940.53;;;-136.68
9798;BMP180;4938;57.492;12.652;2022-08-19T08:22:36;80926.38;;;-136.68
9798;BMP180;4938;57.492;12.652;2022-08-19T08:25:41;80912.22;;;-136.68
9798;BMP180;4938;57.492;12.652;2022-08-19T08:28:28;80928.41;;;-136.68
9798;BMP180;4938;57.492;12.652;2022-08-19T08:31:15;80926.38;;;-136.68
9798;BMP180;4938;57.492;12.652;2022-08-19T08:34:04;80920.31;;;-136.68
9798;BMP180;4938;57.492;12.652;2022-08-19T08:36:51;80922.31;;;-136.68
9798;BMP180;4938;57.492;12.652;2022-08-19T08:39:38;80898.06;;;-136.68
9798;BMP180;4938;57.492;12.652;2022-08-19T08:42:30;80894.00;;;-136.68
9798;BMP180;4938;57.492;12.652;2022-08-19T08:45:18;80898.06;;;-136.68
9798;BMP180;4938;57.492;12.652;2022-08-19T08:48:19;80837.38;;;-136.68
9798;BMP180;4938;57.492;12.652;2022-08-19T08:51:12;80861.63;;;-136.68
9798;BMP180;4938;57.492;12.652;2022-08-19T08:54:04;80821.19;;;-136.68
9798;BMP180;4938;57.492;12.652;2022-08-19T08:56:53;80813.09;;;-136.68
9798;BMP180;4938;57.492;12.652;2022-08-19T08:59:43;80768.59;;;-136.68
9798;BMP180;4938;57.492;12.652;2022-08-19T09:02:37;80776.69;;;-136.68
9798;BMP180;4938;57.492;12.652;2022-08-19T09:05:27;80807.03;;;-136.68
9798;BMP180;4938;57.492;12.652;2022-08-19T09:08:22;80788.81;;;-136.68
9798;BMP180;4938;57.492;12.652;2022-08-19T09:11:15;80792.84;;;-136.68
9798;BMP180;4938;57.492;12.652;2022-08-19T09:14:12;80758.47;;;-136.68
9798;BMP180;4938;57.492;12.652;2022-08-19T09:17:05;80746.34;;;-136.68
9798;BMP180;4938;57.492;12.652;2022-08-19T09:19:55;80718.00;;;-136.68
9798;BMP180;4938;57.492;12.652;2022-08-19T09:22:43;80705.88;;;-136.68
9798;BMP180;4938;57.492;12.652;2022-08-19T09:25:30;80754.44;;;-136.68
9798;BMP180;4938;57.492;12.652;2022-08-19T09:28:20;80748.34;;;-136.68
9798;BMP180;4938;57.492;12.652;2022-08-19T09:31:06;80805.00;;;-136.68
9798;BMP180;4938;57.492;12.652;2022-08-19T09:33:55;80821.19;;;-136.68
9798;BMP180;4938;57.492;12.652;2022-08-19T09:36:43;80881.88;;;-136.68
9798;BMP180;4938;57.492;12.652;2022-08-19T09:39:30;80894.00;;;-136.68
9798;BMP180;4938;57.492;12.652;2022-08-19T09:42:17;80764.53;;;-136.68
9798;BMP180;4938;57.492;12.652;2022-08-19T09:45:05;80918.28;;;-136.68
9798;BMP180;4938;57.492;12.652;2022-08-19T09:47:52;80894.00;;;-136.68
9798;BMP180;4938;57.492;12.652;2022-08-19T09:50:41;80821.19;;;-136.68
9798;BMP180;4938;57.492;12.652;2022-08-19T09:53:28;80758.47;;;-136.68
9798;BMP180;4938;57.492;12.652;2022-08-19T09:56:15;80699.81;;;-136.68
9798;BMP180;4938;57.492;12.652;2022-08-19T09:59:02;80679.56;;;-136.68
9798;BMP180;4938;57.492;12.652;2022-08-19T10:01:51;80716.00;;;-136.68
9798;BMP180;4938;57.492;12.652;2022-08-19T10:04:38;80720.03;;;-136.68
9798;BMP180;4938;57.492;12.652;2022-08-19T10:07:43;80726.09;;;-136.68
9798;BMP180;4938;57.492;12.652;2022-08-19T10:10:34;80507.66;;;-136.68
9798;BMP180;4938;57.492;12.652;2022-08-19T10:13:27;80659.34;;;-136.68
9798;BMP180;4938;57.492;12.652;2022-08-19T10:16:17;80691.72;;;-136.68
9798;BMP180;4938;57.492;12.652;2022-08-19T10:19:05;80639.13;;;-136.68
9798;BMP180;4938;57.492;12.652;2022-08-19T10:21:52;80586.53;;;-136.68
9798;BMP180;4938;57.492;12.652;2022-08-19T10:24:40;80629.00;;;-136.68
9798;BMP180;4938;57.492;12.652;2022-08-19T10:27:27;80659.34;;;-136.68
9798;BMP180;4938;57.492;12.652;2022-08-19T10:30:14;80732.16;;;-136.68
9798;BMP180;4938;57.492;12.652;2022-08-19T10:33:01;80736.22;;;-136.68
9798;BMP180;4938;57.492;12.652;2022-08-19T10:35:48;80728.13;;;-136.68
9798;BMP180;4938;57.492;12.652;2022-08-19T10:38:35;80651.25;;;-136.68
9798;BMP180;4938;57.492;12.652;2022-08-19T10:41:25;80651.25;;;-136.68
9798;BMP180;4938;57.492;12.652;2022-08-19T10:44:13;80695.75;;;-136.68
9798;BMP180;4938;57.492;12.652;2022-08-19T10:47:02;80750.38;;;-136.68
9798;BMP180;4938;57.492;12.652;2022-08-19T10:49:49;80683.63;;;-136.68
9798;BMP180;4938;57.492;12.652;2022-08-19T10:52:54;80655.31;;;-136.68
9798;BMP180;4938;57.492;12.652;2022-08-19T10:55:40;80703.84;;;-136.68
9798;BMP180;4938;57.492;12.652;2022-08-19T10:58:46;80671.50;;;-136.68
9798;BMP180;4938;57.492;12.652;2022-08-19T11:01:34;80422.69;;;-136.68
9798;BMP180;4938;57.492;12.652;2022-08-19T11:04:21;80629.00;;;-136.68
9798;BMP180;4938;57.492;12.652;2022-08-19T11:07:09;80641.16;;;-136.68
9798;BMP180;4938;57.492;12.652;2022-08-19T11:09:57;79955.50;;;-136.68
9798;BMP180;4938;57.492;12.652;2022-08-19T11:12:44;80562.25;;;-136.68
9798;BMP180;4938;57.492;12.652;2022-08-19T11:15:33;80616.88;;;-136.68
9798;BMP180;4938;57.492;12.652;2022-08-19T11:18:20;80598.66;;;-136.68
9798;BMP180;4938;57.492;12.652;2022-08-19T11:21:10;80572.38;;;-136.68
9798;BMP180;4938;57.492;12.652;2022-08-19T11:23:59;80570.34;;;-136.68
9798;BMP180;4938;57.492;12.652;2022-08-19T11:26:48;80703.84;;;-136.68
9798;BMP180;4938;57.492;12.652;2022-08-19T11:29:37;80643.16;;;-136.68
9798;BMP180;4938;57.492;12.652;2022-08-19T11:32:26;80711.94;;;-136.68
9798;BMP180;4938;57.492;12.652;2022-08-19T11:35:13;80711.94;;;-136.68
9798;BMP180;4938;57.492;12.652;2022-08-19T11:38:00;80758.47;;;-136.68
9798;BMP180;4938;57.492;12.652;2022-08-19T11:40:55;80606.75;;;-136.68
9798;BMP180;4938;57.492;12.652;2022-08-19T11:43:42;80748.34;;;-136.68
9798;BMP180;4938;57.492;12.652;2022-08-19T11:46:29;80788.81;;;-136.68
9798;BMP180;4938;57.492;12.652;2022-08-19T11:49:18;80800.94;;;-136.68
9798;BMP180;4938;57.492;12.652;2022-08-19T11:52:06;80768.59;;;-136.68
9798;BMP180;4938;57.492;12.652;2022-08-19T11:54:53;80754.44;;;-136.68
9798;BMP180;4938;57.492;12.652;2022-08-19T11:57:40;80756.44;;;-136.68
9798;BMP180;4938;57.492;12.652;2022-08-19T12:00:29;80938.50;;;-136.68
9798;BMP180;4938;57.492;12.652;2022-08-19T12:03:15;80703.84;;;-136.68
9798;BMP180;4938;57.492;12.652;2022-08-19T12:06:05;80685.66;;;-136.68
9798;BMP180;4938;57.492;12.652;2022-08-19T12:08:52;80677.56;;;-136.68
9798;BMP180;4938;57.492;12.652;2022-08-19T12:11:40;80649.25;;;-136.68
9798;BMP180;4938;57.492;12.652;2022-08-19T12:14:27;80683.63;;;-136.68
9798;BMP180;4938;57.492;12.652;2022-08-19T12:17:16;80610.81;;;-136.68
9798;BMP180;4938;57.492;12.652;2022-08-19T12:20:04;80703.84;;;-136.68
9798;BMP180;4938;57.492;12.652;2022-08-19T12:22:53;80250.78;;;-136.68
9798;BMP180;4938;57.492;12.652;2022-08-19T12:25:45;80681.59;;;-136.68
9798;BMP180;4938;57.492;12.652;2022-08-19T12:28:37;80661.38;;;-136.68
9798;BMP180;4938;57.492;12.652;2022-08-19T12:31:25;80689.69;;;-136.68
9798;BMP180;4938;57.492;12.652;2022-08-19T12:34:12;80671.50;;;-136.68
9798;BMP180;4938;57.492;12.652;2022-08-19T12:37:01;81150.94;;;-136.68
9798;BMP180;4938;57.492;12.652;2022-08-19T12:39:50;80647.22;;;-136.68
9798;BMP180;4938;57.492;12.652;2022-08-19T12:42:37;80653.28;;;-136.68
9798;BMP180;4938;57.492;12.652;2022-08-19T12:45:27;80622.94;;;-136.68
9798;BMP180;4938;57.492;12.652;2022-08-19T12:48:15;80614.84;;;-136.68
9798;BMP180;4938;57.492;12.652;2022-08-19T12:51:06;80651.25;;;-136.68
9798;BMP180;4938;57.492;12.652;2022-08-19T12:53:54;80643.16;;;-136.68
9798;BMP180;4938;57.492;12.652;2022-08-19T12:56:43;80667.44;;;-136.68
9798;BMP180;4938;57.492;12.652;2022-08-19T12:59:32;80703.84;;;-136.68
9798;BMP180;4938;57.492;12.652;2022-08-19T13:02:20;80748.34;;;-136.68
9798;BMP180;4938;57.492;12.652;2022-08-19T13:05:10;80728.13;;;-136.68
9798;BMP180;4938;57.492;12.652;2022-08-19T13:07:58;80707.91;;;-136.68
9798;BMP180;4938;57.492;12.652;2022-08-19T13:10:46;80695.75;;;-136.68
9798;BMP180;4938;57.492;12.652;2022-08-19T13:13:34;80667.44;;;-136.68
9798;BMP180;4938;57.492;12.652;2022-08-19T13:16:21;80669.47;;;-136.68
9798;BMP180;4938;57.492;12.652;2022-08-19T13:19:08;80683.63;;;-136.68
9798;BMP180;4938;57.492;12.652;2022-08-19T13:21:57;80685.66;;;-136.68
9798;BMP180;4938;57.492;12.652;2022-08-19T13:24:44;80716.00;;;-136.68
9798;BMP180;4938;57.492;12.652;2022-08-19T13:27:31;80697.78;;;-136.68
9798;BMP180;4938;57.492;12.652;2022-08-19T13:30:20;80667.44;;;-136.68
9798;BMP180;4938;57.492;12.652;2022-08-19T13:33:24;80637.09;;;-136.68
9798;BMP180;4938;57.492;12.652;2022-08-19T13:36:12;80362.00;;;-136.68
9798;BMP180;4938;57.492;12.652;2022-08-19T13:38:59;80616.88;;;-136.68
9798;BMP180;4938;57.492;12.652;2022-08-19T13:41:46;80624.97;;;-136.68
9798;BMP180;4938;57.492;12.652;2022-08-19T13:44:35;80602.72;;;-136.68
9798;BMP180;4938;57.492;12.652;2022-08-19T13:47:23;80622.94;;;-136.68
9798;BMP180;4938;57.492;12.652;2022-08-19T13:50:12;80608.78;;;-136.68
9798;BMP180;4938;57.492;12.652;2022-08-19T13:53:00;80614.84;;;-136.68
9798;BMP180;4938;57.492;12.652;2022-08-19T13:55:47;80598.66;;;-136.68
9798;BMP180;4938;57.492;12.652;2022-08-19T13:58:36;80606.75;;;-136.68
9798;BMP180;4938;57.492;12.652;2022-08-19T14:01:23;80606.75;;;-136.68
9798;BMP180;4938;57.492;12.652;2022-08-19T14:04:13;80610.81;;;-136.68
9798;BMP180;4938;57.492;12.652;2022-08-19T14:07:00;80614.84;;;-136.68
9798;BMP180;4938;57.492;12.652;2022-08-19T14:09:47;80643.16;;;-136.68
9798;BMP180;4938;57.492;12.652;2022-08-19T14:12:34;80679.56;;;-136.68
9798;BMP180;4938;57.492;12.652;2022-08-19T14:15:21;80384.25;;;-136.68
9798;BMP180;4938;57.492;12.652;2022-08-19T14:18:09;80673.50;;;-136.68
9798;BMP180;4938;57.492;12.652;2022-08-19T14:20:58;80695.75;;;-136.68
9798;BMP180;4938;57.492;12.652;2022-08-19T14:23:46;80707.91;;;-136.68
9798;BMP180;4938;57.492;12.652;2022-08-19T14:26:33;80699.81;;;-136.68
9798;BMP180;4938;57.492;12.652;2022-08-19T14:29:20;80711.94;;;-136.68
9798;BMP180;4938;57.492;12.652;2022-08-19T14:32:07;80631.03;;;-136.68
9798;BMP180;4938;57.492;12.652;2022-08-19T14:34:54;80772.63;;;-136.68
9798;BMP180;4938;57.492;12.652;2022-08-19T14:37:43;80796.91;;;-136.68
9798;BMP180;4938;57.492;12.652;2022-08-19T14:40:31;80833.31;;;-136.68
9798;BMP180;4938;57.492;12.652;2022-08-19T14:43:18;80863.66;;;-136.68
9798;BMP180;4938;57.492;12.652;2022-08-19T14:46:06;80914.22;;;-136.68
9798;BMP180;4938;57.492;12.652;2022-08-19T14:48:54;80954.69;;;-136.68
9798;BMP180;4938;57.492;12.652;2022-08-19T14:51:41;80904.13;;;-136.68
9798;BMP180;4938;57.492;12.652;2022-08-19T14:54:30;80857.59;;;-136.68
9798;BMP180;4938;57.492;12.652;2022-08-19T14:57:17;80841.41;;;-136.68
9798;BMP180;4938;57.492;12.652;2022-08-19T15:00:05;80821.19;;;-136.68
9798;BMP180;4938;57.492;12.652;2022-08-19T15:02:53;80809.03;;;-136.68
9798;BMP180;4938;57.492;12.652;2022-08-19T15:05:40;80798.94;;;-136.68
9798;BMP180;4938;57.492;12.652;2022-08-19T15:08:28;80655.31;;;-136.68
9798;BMP180;4938;57.492;12.652;2022-08-19T15:11:19;80756.44;;;-136.68
9798;BMP180;4938;57.492;12.652;2022-08-19T15:14:06;80782.75;;;-136.68
9798;BMP180;4938;57.492;12.652;2022-08-19T15:16:54;80802.97;;;-136.68
9798;BMP180;4938;57.492;12.652;2022-08-19T15:19:41;80386.28;;;-136.68
9798;BMP180;4938;57.492;12.652;2022-08-19T15:22:28;80813.09;;;-136.68
9798;BMP180;4938;57.492;12.652;2022-08-19T15:25:17;80800.94;;;-136.68
9798;BMP180;4938;57.492;12.652;2022-08-19T15:28:07;80798.94;;;-136.68
9798;BMP180;4938;57.492;12.652;2022-08-19T15:30:56;80807.03;;;-136.68
9798;BMP180;4938;57.492;12.652;2022-08-19T15:33:43;80831.28;;;-136.68
9798;BMP180;4938;57.492;12.652;2022-08-19T15:36:30;80841.41;;;-136.68
9798;BMP180;4938;57.492;12.652;2022-08-19T15:39:18;80817.13;;;-136.68
9798;BMP180;4938;57.492;12.652;2022-08-19T15:42:06;80837.38;;;-136.68
9798;BMP180;4938;57.492;12.652;2022-08-19T15:44:54;80859.63;;;-136.68
9798;BMP180;4938;57.492;12.652;2022-08-19T15:47:41;80841.41;;;-136.68
9798;BMP180;4938;57.492;12.652;2022-08-19T15:50:29;80699.81;;;-136.68
9798;BMP180;4938;57.492;12.652;2022-08-19T15:53:17;81225.78;;;-136.68
9798;BMP180;4938;57.492;12.652;2022-08-19T15:56:04;81314.81;;;-136.68
9798;BMP180;4938;57.492;12.652;2022-08-19T15:58:51;81047.75;;;-136.68